Time;durP1;ratioP1;P1;durP2;ratioP2;P2;SDS_P1;SDS_P2;PMS_P1;PMS_P2;Temp;Humidity;BMP_temperature;BMP_pressure;BME280_temperature;BME280_humidity;BME280_pressure;Samples;Min_cycle;Max_cycle;Signal;HPM_P1;HPM_P2
2024/01/14 00:02:22;;;;;;;30.67;11.80;;;;;;;0.83;56.62;99180.84;5115974;28;20516;-88
2024/01/14 00:04:48;;;;;;;25.70;11.53;;;;;;;0.91;56.57;99175.56;5116353;28;20187;-88
2024/01/14 00:07:13;;;;;;;21.47;9.23;;;;;;;0.92;56.22;99179.84;5094725;28;20218;-87
2024/01/14 00:09:38;;;;;;;20.63;9.87;;;;;;;0.79;56.22;99174.00;5077686;28;20176;-88
2024/01/14 00:12:05;;;;;;;28.80;10.27;;;;;;;0.77;56.04;99169.72;5080175;28;20721;-88
2024/01/14 00:14:30;;;;;;;33.03;12.53;;;;;;;0.65;56.59;99162.16;5116087;28;20174;-87
2024/01/14 00:16:56;;;;;;;35.27;13.80;;;;;;;0.61;56.78;99169.91;5115562;28;20420;-87
2024/01/14 00:19:21;;;;;;;82.93;32.03;;;;;;;0.63;56.97;99157.84;5115404;28;20627;-88
2024/01/14 00:21:47;;;;;;;89.73;30.43;;;;;;;0.66;56.49;99161.25;5098284;28;20178;-87
2024/01/14 00:24:12;;;;;;;110.27;37.47;;;;;;;0.72;56.62;99167.22;5097716;28;20183;-87
2024/01/14 00:26:38;;;;;;;58.90;23.53;;;;;;;0.79;56.59;99166.25;5114156;28;20598;-88
2024/01/14 00:29:03;;;;;;;43.63;15.60;;;;;;;0.82;56.09;99162.78;5078434;28;20186;-88
2024/01/14 00:31:29;;;;;;;36.93;15.33;;;;;;;0.70;55.62;99157.78;5089718;28;20213;-87
2024/01/14 00:33:54;;;;;;;32.67;12.53;;;;;;;0.52;55.96;99164.03;5096995;28;20179;-88
2024/01/14 00:36:19;;;;;;;35.90;15.60;;;;;;;0.43;56.68;99158.97;5115613;28;20178;-88
2024/01/14 00:38:45;;;;;;;28.60;11.77;;;;;;;0.55;56.34;99170.00;5115060;28;20185;-87
2024/01/14 00:41:12;;;;;;;29.30;12.57;;;;;;;0.54;56.18;99159.72;5115299;28;20190;-88
2024/01/14 00:43:37;;;;;;;28.80;11.30;;;;;;;0.36;56.72;99152.19;5115277;28;20186;-88
2024/01/14 00:46:03;;;;;;;25.53;10.93;;;;;;;0.31;57.21;99154.84;5115358;28;20428;-88
2024/01/14 00:48:30;;;;;;;34.93;12.00;;;;;;;0.28;57.32;99148.84;5114861;28;20199;-87
2024/01/14 00:50:55;;;;;;;31.93;11.27;;;;;;;0.29;57.79;99143.66;5097451;28;20416;-87
2024/01/14 00:53:21;;;;;;;24.30;9.23;;;;;;;0.44;57.24;99140.94;5114907;28;20429;-88
2024/01/14 00:55:46;;;;;;;27.83;10.37;;;;;;;0.32;57.45;99135.03;5096790;28;20242;-88
2024/01/14 00:58:12;;;;;;;23.27;9.40;;;;;;;0.23;57.83;99138.59;5114812;28;20190;-87
2024/01/14 01:00:38;;;;;;;31.23;12.77;;;;;;;0.33;57.38;99142.78;5115022;28;20199;-87
2024/01/14 01:03:03;;;;;;;21.47;8.63;;;;;;;0.08;57.83;99131.00;5114881;28;20242;-88
2024/01/14 01:05:29;;;;;;;23.33;10.00;;;;;;;0.16;58.28;99136.94;5114772;28;20539;-87
2024/01/14 01:07:54;;;;;;;28.07;10.77;;;;;;;0.19;57.86;99131.75;5114546;28;20204;-88
2024/01/14 01:10:20;;;;;;;20.13;9.17;;;;;;;0.17;57.83;99122.34;5114747;28;20174;-88
2024/01/14 01:12:45;;;;;;;17.17;8.23;;;;;;;0.20;58.32;99120.59;5114754;28;20218;-88
2024/01/14 01:15:11;;;;;;;21.77;9.10;;;;;;;0.33;58.11;99111.84;5096939;28;20171;-87
2024/01/14 01:17:36;;;;;;;22.63;8.73;;;;;;;0.30;58.13;99111.88;5096645;28;20174;-88
2024/01/14 01:20:03;;;;;;;18.87;7.17;;;;;;;0.22;58.09;99105.94;5096144;28;20206;-88
2024/01/14 01:22:28;;;;;;;19.37;6.67;;;;;;;0.26;57.86;99099.88;5096564;28;20525;-87
2024/01/14 01:24:54;;;;;;;22.27;9.50;;;;;;;0.22;57.97;99098.22;5114433;28;20457;-88
2024/01/14 01:27:19;;;;;;;21.20;7.83;;;;;;;0.30;57.51;99101.56;5114115;28;20238;-87
2024/01/14 01:29:45;;;;;;;23.60;8.47;;;;;;;0.33;57.53;99092.94;5114612;28;20646;-88
2024/01/14 01:32:10;;;;;;;17.87;7.67;;;;;;;0.37;57.32;99087.72;5114291;28;20190;-88
2024/01/14 01:34:39;;;;;;;24.27;9.40;;;;;;;0.37;57.30;99084.28;5096853;28;20177;-88
2024/01/14 01:37:04;;;;;;;22.50;9.23;;;;;;;0.24;57.47;99086.16;5095842;28;20177;-88
2024/01/14 01:39:31;;;;;;;21.33;10.50;;;;;;;0.12;57.39;99070.84;5096712;28;20447;-88
2024/01/14 01:41:56;;;;;;;24.83;11.27;;;;;;;0.19;57.14;99077.63;5113591;28;20192;-88
2024/01/14 01:44:22;;;;;;;23.53;10.10;;;;;;;0.24;57.47;99078.44;5113847;28;20495;-88
2024/01/14 01:46:49;;;;;;;18.37;7.93;;;;;;;0.14;57.20;99079.41;5114229;28;20183;-88
2024/01/14 01:49:14;;;;;;;28.10;9.93;;;;;;;0.03;57.74;99076.09;5096050;28;20569;-88
2024/01/14 01:51:44;;;;;;;27.63;10.07;;;;;;;0.01;57.74;99067.53;5129951;27;20436;-87
2024/01/14 01:54:11;;;;;;;23.13;11.20;;;;;;;0.00;57.90;99058.97;5096207;28;20193;-87
2024/01/14 01:56:38;;;;;;;31.47;9.93;;;;;;;0.04;58.29;99054.63;5114273;28;20441;-87
2024/01/14 01:59:04;;;;;;;33.40;11.73;;;;;;;0.12;58.07;99052.81;5113854;28;20422;-87
2024/01/14 02:01:32;;;;;;;24.67;9.60;;;;;;;0.18;57.78;99044.16;5095212;28;20418;-88
2024/01/14 02:04:00;;;;;;;25.67;10.53;;;;;;;0.24;57.71;99044.91;5113795;28;20417;-88
2024/01/14 02:06:27;;;;;;;28.10;12.47;;;;;;;0.31;57.44;99035.41;5113637;28;20418;-88
2024/01/14 02:08:53;;;;;;;26.73;10.83;;;;;;;0.25;57.46;99045.78;5113621;28;20557;-88
2024/01/14 02:11:19;;;;;;;23.40;9.10;;;;;;;0.07;57.79;99036.56;5113449;28;20503;-88
2024/01/14 02:13:45;;;;;;;28.80;11.10;;;;;;;0.04;58.02;99039.19;5149959;27;20330;-88
2024/01/14 02:16:12;;;;;;;20.60;9.77;;;;;;;0.18;58.35;99036.44;5134101;27;20411;-88
2024/01/14 02:18:37;;;;;;;23.80;9.97;;;;;;;0.18;57.88;99029.56;5134138;27;20165;-88
2024/01/14 02:21:03;;;;;;;24.53;10.93;;;;;;;0.04;58.09;99025.44;5133924;27;20491;-88
2024/01/14 02:23:35;;;;;;;25.33;11.33;;;;;;;-0.14;58.73;99027.38;5115485;28;20191;-88
2024/01/14 02:26:00;;;;;;;26.17;13.00;;;;;;;-0.30;58.94;99024.97;5134608;27;20233;-88
2024/01/14 02:28:26;;;;;;;38.87;14.37;;;;;;;-0.33;59.74;99023.28;5130413;27;20478;-88
2024/01/14 02:30:53;;;;;;;30.30;12.20;;;;;;;-0.27;59.78;99024.94;5113653;28;20182;-88
2024/01/14 02:33:19;;;;;;;21.20;10.90;;;;;;;-0.42;59.87;99014.81;5134516;28;20273;-87
2024/01/14 02:35:44;;;;;;;35.97;16.40;;;;;;;-0.30;60.35;99012.97;5133944;28;20456;-88
2024/01/14 02:38:09;;;;;;;26.10;11.10;;;;;;;-0.19;60.03;99018.84;5133744;28;20527;-88
2024/01/14 02:40:35;;;;;;;21.13;10.57;;;;;;;-0.08;59.30;99018.72;5133918;28;20610;-88
2024/01/14 02:43:00;;;;;;;23.27;10.77;;;;;;;-0.06;58.98;99016.97;5134163;28;20178;-88
2024/01/14 02:45:30;;;;;;;28.30;12.37;;;;;;;-0.13;58.52;99017.94;5133943;28;20277;-88
2024/01/14 02:47:56;;;;;;;27.07;10.20;;;;;;;-0.17;58.59;99016.25;5115536;28;20566;-88
2024/01/14 02:50:21;;;;;;;23.87;10.87;;;;;;;-0.18;58.57;99011.94;5137422;27;20432;-88
2024/01/14 02:52:47;;;;;;;30.20;12.43;;;;;;;-0.18;58.95;99011.94;5138254;27;20180;-88
2024/01/14 02:55:13;;;;;;;21.57;10.83;;;;;;;-0.13;58.69;99013.59;5138208;27;20679;-87
2024/01/14 02:57:38;;;;;;;27.40;12.13;;;;;;;-0.11;58.44;99011.88;5137941;27;20190;-87
2024/01/14 03:00:06;;;;;;;20.40;10.13;;;;;;;-0.05;58.30;99005.78;5137854;27;20255;-88
2024/01/14 03:02:31;;;;;;;32.23;10.47;;;;;;;-0.09;57.78;99014.44;5119653;27;20184;-88
2024/01/14 03:04:57;;;;;;;20.50;9.37;;;;;;;-0.16;57.92;99008.47;5126034;27;20525;-88
2024/01/14 03:07:22;;;;;;;28.97;10.73;;;;;;;-0.24;57.99;99014.63;5099407;28;20201;-88
2024/01/14 03:09:48;;;;;;;19.47;9.80;;;;;;;-0.22;58.35;99020.59;5134127;27;20203;-87
2024/01/14 03:12:13;;;;;;;25.67;11.33;;;;;;;-0.25;58.63;99008.59;5137630;27;20184;-88
2024/01/14 03:14:39;;;;;;;20.73;10.60;;;;;;;-0.27;58.38;99014.66;5137089;27;20176;-88
2024/01/14 03:17:05;;;;;;;25.40;9.80;;;;;;;-0.29;58.25;99011.25;5119708;27;20176;-88
2024/01/14 03:19:30;;;;;;;26.90;10.33;;;;;;;-0.26;58.76;99011.22;5137291;27;20191;-88
2024/01/14 03:21:56;;;;;;;28.87;10.93;;;;;;;-0.27;58.34;99012.06;5137389;27;20534;-88
2024/01/14 03:24:21;;;;;;;26.27;9.97;;;;;;;-0.28;58.53;99012.94;5137394;27;20192;-88
2024/01/14 03:26:47;;;;;;;19.23;8.47;;;;;;;-0.44;58.11;99008.81;5136980;27;20208;-88
2024/01/14 03:29:12;;;;;;;20.53;9.23;;;;;;;-0.55;57.96;99011.50;5137562;27;20669;-88
2024/01/14 03:31:37;;;;;;;17.83;9.03;;;;;;;-0.50;57.94;99007.19;5118971;27;20627;-87
2024/01/14 03:34:03;;;;;;;23.20;11.07;;;;;;;-0.55;57.97;99008.09;5119407;27;20173;-88
2024/01/14 03:36:28;;;;;;;19.33;9.80;;;;;;;-0.54;57.79;98999.50;5137155;27;20575;-88
2024/01/14 03:38:54;;;;;;;25.13;9.80;;;;;;;-0.51;58.13;99005.47;5136608;27;20259;-87
2024/01/14 03:41:19;;;;;;;22.07;9.83;;;;;;;-0.51;57.87;99004.63;5137557;27;20262;-88
2024/01/14 03:43:44;;;;;;;25.67;9.17;;;;;;;-0.55;57.78;99000.38;5137362;27;20187;-87
2024/01/14 03:46:10;;;;;;;21.60;7.47;;;;;;;-0.51;57.48;99004.63;5137335;27;20186;-87
2024/01/14 03:48:36;;;;;;;20.30;8.77;;;;;;;-0.42;57.59;98989.91;5119043;27;20655;-88
2024/01/14 03:51:01;;;;;;;20.17;8.70;;;;;;;-0.39;57.12;98991.63;5118759;27;20245;-88
2024/01/14 03:53:26;;;;;;;18.90;7.87;;;;;;;-0.46;57.35;98988.25;5118492;27;20181;-88
2024/01/14 03:55:52;;;;;;;19.30;7.83;;;;;;;-0.49;56.89;98995.16;5136789;27;20171;-88
2024/01/14 03:58:17;;;;;;;16.17;7.97;;;;;;;-0.55;57.10;98988.34;5118454;27;20563;-87
2024/01/14 04:00:43;;;;;;;22.33;9.17;;;;;;;-0.68;56.94;98990.19;5118338;27;20268;-87
2024/01/14 04:03:08;;;;;;;16.30;6.23;;;;;;;-0.78;57.48;98991.16;5118706;27;20263;-88
2024/01/14 04:05:34;;;;;;;12.27;6.47;;;;;;;-0.76;57.68;98984.28;5137429;27;20183;-88
2024/01/14 04:07:59;;;;;;;16.57;6.80;;;;;;;-0.85;57.66;98986.94;5136446;27;20203;-87
2024/01/14 04:10:24;;;;;;;16.83;6.97;;;;;;;-0.95;58.33;98995.63;5118538;27;20183;-88
2024/01/14 04:12:50;;;;;;;16.50;6.53;;;;;;;-0.87;58.36;98991.25;5118606;27;20176;-88
2024/01/14 04:15:15;;;;;;;11.93;6.30;;;;;;;-0.94;58.42;98992.16;5136223;27;20175;-88
2024/01/14 04:17:41;;;;;;;13.07;7.40;;;;;;;-1.00;58.91;98992.25;5118600;27;20618;-88
2024/01/14 04:20:07;;;;;;;9.57;5.27;;;;;;;-0.90;58.88;98993.84;5136626;27;20175;-88
2024/01/14 04:22:33;;;;;;;13.33;6.97;;;;;;;-0.81;58.64;98991.19;5118118;27;20244;-88
2024/01/14 04:24:58;;;;;;;14.30;6.00;;;;;;;-0.75;58.53;98991.13;5117688;27;20422;-88
2024/01/14 04:27:23;;;;;;;15.53;7.93;;;;;;;-0.71;58.04;98987.66;5118020;27;20581;-88
2024/01/14 04:29:49;;;;;;;9.90;4.43;;;;;;;-0.82;59.06;98983.50;5136400;27;20628;-88
2024/01/14 04:32:14;;;;;;;13.13;4.87;;;;;;;-0.85;59.02;98986.94;5118087;27;20180;-87
2024/01/14 04:34:40;;;;;;;15.57;6.70;;;;;;;-0.79;58.99;98981.75;5118016;27;20606;-87
2024/01/14 04:37:05;;;;;;;16.33;6.27;;;;;;;-0.72;59.46;98985.97;5118232;27;20610;-88
2024/01/14 04:39:30;;;;;;;20.07;7.47;;;;;;;-0.85;59.39;98979.22;5117858;27;20186;-87
2024/01/14 04:41:57;;;;;;;16.83;7.30;;;;;;;-0.86;59.21;98987.81;5117491;27;20279;-88
2024/01/14 04:44:22;;;;;;;22.53;8.60;;;;;;;-0.87;59.02;98983.53;5117282;27;20180;-88
2024/01/14 04:46:48;;;;;;;17.97;8.13;;;;;;;-0.81;58.77;98991.19;5117584;27;20962;-88
2024/01/14 04:49:13;;;;;;;15.30;8.17;;;;;;;-0.80;58.37;98987.75;5135709;27;20176;-88
2024/01/14 04:51:39;;;;;;;17.27;8.13;;;;;;;-0.85;57.96;98989.53;5117614;27;20175;-87
2024/01/14 04:54:04;;;;;;;12.83;7.33;;;;;;;-0.82;57.98;98986.94;5113459;28;20255;-87
2024/01/14 04:56:30;;;;;;;18.97;8.20;;;;;;;-0.90;57.94;98988.72;5097080;28;20222;-87
2024/01/14 04:58:55;;;;;;;28.03;9.50;;;;;;;-0.87;57.56;98991.25;5115890;27;20176;-88
2024/01/14 05:01:21;;;;;;;16.37;7.53;;;;;;;-0.85;57.71;98989.53;5117294;27;20183;-87
2024/01/14 05:03:47;;;;;;;21.00;10.90;;;;;;;-0.86;57.37;98995.53;5103021;28;20193;-87
2024/01/14 05:06:12;;;;;;;16.50;9.07;;;;;;;-0.85;57.34;98996.38;5115071;28;20164;-87
2024/01/14 05:08:41;;;;;;;22.53;10.87;;;;;;;-0.98;56.91;98993.06;5145300;27;20340;-87
2024/01/14 05:11:07;;;;;;;25.00;9.53;;;;;;;-1.02;56.76;98999.09;5116509;28;20180;-87
2024/01/14 05:13:32;;;;;;;15.60;7.63;;;;;;;-1.03;56.71;99005.13;5117004;27;20425;-87
2024/01/14 05:15:57;;;;;;;19.70;8.20;;;;;;;-0.99;57.08;99006.78;5116998;27;20187;-87
2024/01/14 05:18:23;;;;;;;18.57;10.37;;;;;;;-0.98;56.87;99012.78;5134707;27;20236;-88
2024/01/14 05:20:48;;;;;;;23.57;9.83;;;;;;;-1.01;56.64;99008.53;5117211;27;20179;-88
2024/01/14 05:23:14;;;;;;;21.23;9.70;;;;;;;-0.94;56.28;99005.03;5135341;27;20182;-87
2024/01/14 05:25:39;;;;;;;21.67;11.07;;;;;;;-0.83;55.91;98997.22;5120582;27;20185;-87
2024/01/14 05:28:05;;;;;;;20.17;10.30;;;;;;;-0.96;55.85;98996.47;5114341;28;20645;-87
2024/01/14 05:30:30;;;;;;;23.37;8.47;;;;;;;-1.12;56.86;98999.19;5106572;27;20186;-87
2024/01/14 05:32:56;;;;;;;17.53;8.87;;;;;;;-1.14;57.23;98995.78;5134598;27;20187;-87
2024/01/14 05:35:21;;;;;;;17.93;7.40;;;;;;;-1.21;57.78;98995.00;5135653;27;20172;-88
2024/01/14 05:37:46;;;;;;;13.97;7.07;;;;;;;-1.14;57.86;99000.91;5134907;27;20253;-87
2024/01/14 05:40:12;;;;;;;14.10;5.77;;;;;;;-1.09;57.81;98994.88;5116670;27;20175;-87
2024/01/14 05:42:41;;;;;;;6.60;4.47;;;;;;;-1.02;57.95;98983.66;5134715;27;20163;-87
2024/01/14 05:45:07;;;;;;;16.77;6.93;;;;;;;-1.15;58.52;98983.81;5102635;28;20620;-87
2024/01/14 05:47:33;;;;;;;11.03;4.83;;;;;;;-1.19;58.74;98982.97;5113702;28;20476;-87
2024/01/14 05:49:59;;;;;;;11.27;5.93;;;;;;;-1.13;58.96;98971.78;5095994;28;20976;-87
2024/01/14 05:52:25;;;;;;;13.23;5.77;;;;;;;-1.12;58.80;98976.91;5114231;28;20604;-88
2024/01/14 05:54:50;;;;;;;24.20;8.70;;;;;;;-1.10;58.77;98970.00;5114581;28;20412;-87
2024/01/14 05:57:16;;;;;;;18.20;7.80;;;;;;;-1.07;58.84;98967.41;5113109;27;20601;-87
2024/01/14 05:59:41;;;;;;;19.97;9.03;;;;;;;-1.07;58.94;98982.00;5116623;27;20524;-87
2024/01/14 06:02:06;;;;;;;24.77;9.50;;;;;;;-1.11;58.36;98976.03;5116150;27;20182;-87
2024/01/14 06:04:32;;;;;;;22.97;10.30;;;;;;;-1.16;58.36;98982.94;5116234;27;20175;-87
2024/01/14 06:06:57;;;;;;;25.20;12.93;;;;;;;-1.08;58.11;98970.88;5134097;27;20652;-87
2024/01/14 06:09:23;;;;;;;21.63;11.97;;;;;;;-1.09;57.65;98982.03;5134097;27;20178;-87
2024/01/14 06:11:48;;;;;;;20.93;10.80;;;;;;;-0.98;57.08;98976.78;5115785;27;20175;-87
2024/01/14 06:14:14;;;;;;;27.13;9.83;;;;;;;-1.04;57.56;98982.81;5115961;28;20178;-88
2024/01/14 06:16:39;;;;;;;16.83;9.97;;;;;;;-1.04;57.27;98977.69;5134507;27;20179;-87
2024/01/14 06:19:05;;;;;;;23.87;11.53;;;;;;;-1.06;57.36;98978.56;5116059;28;20176;-87
2024/01/14 06:21:30;;;;;;;27.90;12.83;;;;;;;-1.16;57.58;98987.22;5116141;27;20622;-87
2024/01/14 06:23:56;;;;;;;25.17;11.83;;;;;;;-1.25;57.39;98980.44;5115804;28;20700;-87
2024/01/14 06:26:21;;;;;;;24.00;10.77;;;;;;;-1.16;57.09;98979.53;5115982;27;20184;-87
2024/01/14 06:28:47;;;;;;;33.73;13.80;;;;;;;-1.08;57.33;98976.03;5115660;28;20203;-87
2024/01/14 06:31:12;;;;;;;21.17;11.57;;;;;;;-0.83;55.61;98986.91;5132042;28;20571;-87
2024/01/14 06:33:38;;;;;;;31.57;15.00;;;;;;;-0.85;55.97;98979.22;5113478;28;20183;-87
2024/01/14 06:36:07;;;;;;;37.50;14.73;;;;;;;-0.80;57.15;98974.03;5096265;28;20535;-87
2024/01/14 06:38:35;;;;;;;30.37;15.93;;;;;;;-0.66;57.64;98975.63;5115875;28;20183;-87
2024/01/14 06:41:01;;;;;;;46.97;17.00;;;;;;;-0.08;58.44;98980.91;5116658;28;20413;-87
2024/01/14 06:43:26;;;;;;;29.87;13.43;;;;;;;0.63;57.13;98967.91;5133736;28;20911;-87
2024/01/14 06:45:52;;;;;;;18.90;8.93;;;;;;;1.35;55.79;98958.91;5115824;28;20215;-87
2024/01/14 06:48:17;;;;;;;22.10;9.70;;;;;;;2.19;53.71;98966.66;5133974;28;20200;-87
2024/01/14 06:50:43;;;;;;;28.33;10.97;;;;;;;2.88;51.35;98951.22;5134652;28;20179;-88
2024/01/14 06:53:08;;;;;;;25.60;11.20;;;;;;;3.69;50.75;98952.53;5133947;28;20182;-88
2024/01/14 06:55:34;;;;;;;23.33;10.23;;;;;;;4.41;48.80;98939.13;5116241;28;20215;-88
2024/01/14 06:57:59;;;;;;;30.13;11.10;;;;;;;5.35;45.69;98929.06;5115667;28;20623;-88
2024/01/14 07:00:25;;;;;;;24.23;10.20;;;;;;;6.44;43.74;98925.03;5133397;28;20187;-88
2024/01/14 07:02:50;;;;;;;28.07;11.40;;;;;;;7.34;40.10;98930.81;5133541;28;20215;-88
2024/01/14 07:05:16;;;;;;;23.33;10.90;;;;;;;7.18;39.42;98929.75;5104878;28;20184;-88
2024/01/14 07:07:41;;;;;;;27.43;11.17;;;;;;;6.88;40.90;98930.19;5113362;28;20211;-88
2024/01/14 07:10:07;;;;;;;23.90;10.87;;;;;;;7.33;40.42;98936.09;5121384;28;20256;-87
2024/01/14 07:12:33;;;;;;;22.83;10.77;;;;;;;8.09;39.30;98930.09;5133609;28;20175;-88
2024/01/14 07:14:59;;;;;;;23.13;10.30;;;;;;;8.63;37.33;98911.88;5133481;28;20526;-88
2024/01/14 07:17:24;;;;;;;21.27;9.53;;;;;;;9.02;36.95;98916.91;5133503;28;20252;-88
2024/01/14 07:19:50;;;;;;;25.53;10.83;;;;;;;9.07;37.51;98907.91;5123815;28;20740;-88
2024/01/14 07:22:15;;;;;;;23.17;10.73;;;;;;;8.96;37.21;98918.03;5113027;28;20182;-88
2024/01/14 07:24:40;;;;;;;20.20;9.60;;;;;;;9.00;37.51;98923.97;5126801;28;20182;-88
2024/01/14 07:27:06;;;;;;;18.77;8.80;;;;;;;9.05;37.37;98917.59;5133492;28;20678;-87
2024/01/14 07:29:31;;;;;;;21.07;9.73;;;;;;;8.85;37.11;98915.13;5133437;28;20620;-88
2024/01/14 07:31:57;;;;;;;20.07;9.53;;;;;;;8.37;37.03;98907.03;5133641;27;20526;-88
2024/01/14 07:34:22;;;;;;;22.60;10.10;;;;;;;7.90;37.95;98917.03;5133882;27;20250;-89
2024/01/14 07:36:48;;;;;;;27.63;12.07;;;;;;;7.33;38.11;98915.25;5137177;27;20667;-88
2024/01/14 07:39:14;;;;;;;25.50;10.17;;;;;;;6.90;39.99;98912.72;5136968;27;20252;-88
2024/01/14 07:41:40;;;;;;;22.73;9.87;;;;;;;6.54;40.92;98912.47;5136988;27;20178;-88
2024/01/14 07:44:05;;;;;;;19.93;8.87;;;;;;;6.04;42.04;98917.03;5137026;27;20205;-88
2024/01/14 07:46:31;;;;;;;19.77;8.27;;;;;;;5.77;42.73;98915.41;5136406;27;20208;-88
2024/01/14 07:48:57;;;;;;;23.87;9.67;;;;;;;5.54;44.09;98911.91;5136891;27;20209;-88
2024/01/14 07:51:22;;;;;;;17.30;7.17;;;;;;;5.32;45.10;98900.56;5136904;27;20269;-87
2024/01/14 07:53:48;;;;;;;17.53;7.90;;;;;;;5.28;46.27;98914.59;5136782;27;20183;-88
2024/01/14 07:56:13;;;;;;;18.70;7.40;;;;;;;5.08;47.36;98919.63;5136723;27;20208;-88
2024/01/14 07:58:38;;;;;;;14.90;7.50;;;;;;;4.75;48.38;98915.53;5136777;27;20169;-88
2024/01/14 08:01:07;;;;;;;17.27;6.40;;;;;;;4.81;49.24;98916.22;5136753;27;20190;-88
2024/01/14 08:03:32;;;;;;;14.23;6.97;;;;;;;4.81;50.05;98911.00;5136320;27;20283;-88
2024/01/14 08:05:58;;;;;;;18.07;5.67;;;;;;;4.91;50.22;98906.34;5136687;27;20539;-88
2024/01/14 08:08:24;;;;;;;18.27;6.80;;;;;;;5.10;50.73;98894.44;5136539;27;20215;-88
2024/01/14 08:10:49;;;;;;;14.07;7.37;;;;;;;5.27;51.08;98893.84;5126093;27;20213;-88
2024/01/14 08:13:15;;;;;;;22.53;8.83;;;;;;;5.34;50.71;98892.75;5116035;28;20179;-88
2024/01/14 08:15:41;;;;;;;17.13;7.97;;;;;;;5.38;51.23;98892.56;5098017;28;20187;-89
2024/01/14 08:18:06;;;;;;;19.57;9.37;;;;;;;5.43;51.27;98898.44;5113431;27;20189;-89
2024/01/14 08:20:32;;;;;;;20.43;9.20;;;;;;;5.71;51.73;98902.66;5118736;27;20705;-89
2024/01/14 08:22:58;;;;;;;27.97;11.10;;;;;;;5.78;50.01;98894.56;5126676;27;20178;-89
2024/01/14 08:25:23;;;;;;;25.90;10.60;;;;;;;5.84;49.84;98893.50;5116385;28;20174;-90
2024/01/14 08:27:55;;;;;;;20.87;9.20;;;;;;;6.04;49.70;98896.22;5115577;28;20207;-90
2024/01/14 08:30:21;;;;;;;18.67;8.20;;;;;;;6.00;49.05;98892.88;5132394;27;20638;-90
2024/01/14 08:32:46;;;;;;;20.23;8.77;;;;;;;6.05;49.02;98885.75;5136613;27;20261;-89
2024/01/14 08:35:12;;;;;;;25.47;11.30;;;;;;;6.15;49.33;98887.13;5135901;27;20218;-90
2024/01/14 08:37:37;;;;;;;32.27;12.57;;;;;;;6.10;48.45;98877.78;5136227;27;20250;-89
2024/01/14 08:40:04;;;;;;;29.27;10.20;;;;;;;5.69;47.07;98871.50;5117731;27;20175;-89
2024/01/14 08:42:29;;;;;;;26.67;8.93;;;;;;;5.59;48.24;98876.19;5136100;27;20207;-89
2024/01/14 08:44:54;;;;;;;17.97;8.43;;;;;;;5.67;48.17;98867.25;5136184;27;20167;-90
2024/01/14 08:47:20;;;;;;;18.80;8.43;;;;;;;5.87;48.89;98868.25;5117841;27;20203;-89
2024/01/14 08:49:45;;;;;;;16.57;7.60;;;;;;;6.16;48.65;98867.13;5117784;27;20183;-90
2024/01/14 08:52:11;;;;;;;18.23;9.10;;;;;;;6.32;47.85;98865.63;5135992;27;20253;-90
2024/01/14 08:54:37;;;;;;;25.77;9.30;;;;;;;6.33;47.26;98856.91;5135723;27;20265;-90
2024/01/14 08:57:03;;;;;;;31.77;11.37;;;;;;;6.51;47.02;98844.91;5117312;27;20183;-89
2024/01/14 08:59:28;;;;;;;25.37;9.90;;;;;;;6.86;47.08;98844.31;5135583;27;20186;-90
2024/01/14 09:01:54;;;;;;;18.03;7.83;;;;;;;7.07;44.93;98842.53;5135705;27;20663;-90
2024/01/14 09:04:19;;;;;;;21.30;9.03;;;;;;;7.36;45.52;98829.91;5135785;27;20630;-89
2024/01/14 09:06:45;;;;;;;27.53;10.73;;;;;;;7.71;42.22;98832.69;5135695;27;20175;-89
2024/01/14 09:09:11;;;;;;;17.33;8.57;;;;;;;7.71;42.56;98830.06;5135485;27;20199;-90
2024/01/14 09:11:37;;;;;;;17.10;7.97;;;;;;;7.82;43.83;98825.22;5117165;27;20185;-90
2024/01/14 09:14:02;;;;;;;18.73;8.83;;;;;;;7.94;43.13;98825.47;5136099;27;20175;-90
2024/01/14 09:16:28;;;;;;;18.73;9.60;;;;;;;7.93;43.37;98815.97;5135735;27;20186;-91
2024/01/14 09:18:53;;;;;;;20.77;9.43;;;;;;;8.10;43.09;98823.00;5135234;27;20172;-90
2024/01/14 09:21:19;;;;;;;24.53;11.67;;;;;;;8.41;42.32;98814.59;5135936;27;20171;-90
2024/01/14 09:23:44;;;;;;;34.03;14.30;;;;;;;8.49;42.70;98805.44;5121706;27;20271;-89
2024/01/14 09:26:10;;;;;;;24.93;11.43;;;;;;;8.53;43.25;98806.97;5114664;28;20182;-89
2024/01/14 09:28:36;;;;;;;40.50;14.20;;;;;;;8.58;43.10;98798.91;5123542;27;20222;-90
2024/01/14 09:31:02;;;;;;;30.17;13.03;;;;;;;8.63;42.16;98789.06;5135185;27;20184;-89
2024/01/14 09:33:28;;;;;;;30.80;14.27;;;;;;;8.56;41.76;98792.94;5135071;27;20263;-89
2024/01/14 09:35:57;;;;;;;29.53;13.40;;;;;;;8.60;42.28;98797.91;5134386;27;20261;-89
2024/01/14 09:38:22;;;;;;;27.00;14.10;;;;;;;8.63;41.98;98791.69;5135326;27;20177;-90
2024/01/14 09:41:02;;;;;;;35.97;14.17;;;;;;;8.51;41.94;98784.47;5134678;27;20243;-90
2024/01/14 09:43:32;;;;;;;31.53;13.53;;;;;;;8.36;42.53;98785.25;5135534;27;20246;-89
2024/01/14 09:45:58;;;;;;;27.20;14.40;;;;;;;8.38;42.08;98779.03;5134995;27;20176;-90
2024/01/14 09:48:23;;;;;;;32.57;14.70;;;;;;;8.37;42.38;98768.63;5116608;27;20198;-89
2024/01/14 09:50:51;;;;;;;35.27;15.13;;;;;;;8.43;42.04;98765.72;5135090;27;20186;-89
2024/01/14 09:53:19;;;;;;;33.47;15.10;;;;;;;8.25;42.40;98762.22;5116550;27;20252;-89
2024/01/14 09:55:48;;;;;;;33.03;14.37;;;;;;;8.27;42.47;98752.59;5116671;27;20179;-89
2024/01/14 09:58:14;;;;;;;27.50;13.80;;;;;;;8.35;42.65;98752.19;5116516;27;20190;-89
2024/01/14 10:00:40;;;;;;;27.97;14.10;;;;;;;8.23;41.94;98739.72;5133932;27;20534;-89
2024/01/14 10:03:06;;;;;;;25.57;12.97;;;;;;;8.26;42.46;98734.34;5134902;27;20182;-89
2024/01/14 10:05:34;;;;;;;33.97;13.63;;;;;;;8.18;42.29;98734.72;5134421;27;20175;-90
2024/01/14 10:08:00;;;;;;;30.17;13.17;;;;;;;8.32;42.44;98728.84;5134451;27;20195;-89
2024/01/14 10:10:28;;;;;;;34.40;14.53;;;;;;;8.62;42.70;98719.47;5134558;27;20189;-90
2024/01/14 10:12:54;;;;;;;35.30;16.00;;;;;;;8.61;41.57;98716.03;5116570;27;20527;-90
2024/01/14 10:15:20;;;;;;;32.70;15.07;;;;;;;8.53;42.22;98714.72;5134394;27;20276;-90
2024/01/14 10:17:47;;;;;;;31.40;13.93;;;;;;;8.21;42.47;98710.22;5134057;27;20187;-91
2024/01/14 10:20:12;;;;;;;26.53;14.13;;;;;;;8.49;42.52;98706.19;5134567;27;20198;-90
2024/01/14 10:22:42;;;;;;;27.97;14.50;;;;;;;8.58;42.00;98704.88;5116308;27;20210;-90
2024/01/14 10:25:07;;;;;;;31.97;14.63;;;;;;;8.81;42.10;98701.06;5116009;28;20178;-90
2024/01/14 10:27:33;;;;;;;31.20;14.13;;;;;;;8.98;42.01;98691.44;5134044;27;20265;-90
2024/01/14 10:29:58;;;;;;;34.77;14.40;;;;;;;8.97;41.98;98692.34;5134319;27;20193;-90
2024/01/14 10:32:23;;;;;;;31.53;14.00;;;;;;;9.08;41.93;98681.31;5134157;28;20197;-91
2024/01/14 10:34:52;;;;;;;30.50;14.23;;;;;;;9.16;42.40;98671.28;5134348;28;20189;-89
2024/01/14 10:37:22;;;;;;;33.60;13.83;;;;;;;9.04;42.14;98667.56;5134178;27;20170;-90
2024/01/14 10:39:50;;;;;;;32.13;13.13;;;;;;;8.98;41.66;98667.91;5134594;27;20256;-92
2024/01/14 10:42:16;;;;;;;31.60;13.20;;;;;;;9.41;41.84;98661.16;5115452;28;20185;-90
2024/01/14 10:44:41;;;;;;;29.90;13.80;;;;;;;9.72;42.19;98655.06;5134506;28;20554;-90
2024/01/14 10:47:10;;;;;;;28.97;12.37;;;;;;;10.09;41.63;98659.88;5134292;28;20264;-90
2024/01/14 10:49:42;;;;;;;27.53;12.67;;;;;;;10.04;41.26;98654.06;5134471;28;20168;-91
2024/01/14 10:52:11;;;;;;;27.40;12.83;;;;;;;10.27;40.98;98648.34;5134371;28;20194;-91
2024/01/14 10:54:52;;;;;;;23.33;10.97;;;;;;;10.48;40.66;98641.81;5117020;28;20186;-91
2024/01/14 10:57:37;;;;;;;26.33;11.53;;;;;;;9.82;40.84;98649.22;5134268;28;20190;-91
2024/01/14 11:00:08;;;;;;;25.93;10.37;;;;;;;10.27;40.55;98643.09;5134179;27;20175;-92
2024/01/14 11:02:38;;;;;;;24.03;12.90;;;;;;;10.41;40.94;98629.19;5117101;28;20221;-91
2024/01/14 11:05:05;;;;;;;24.77;12.03;;;;;;;10.45;40.11;98630.72;5115603;28;20175;-91
2024/01/14 11:07:33;;;;;;;29.80;12.93;;;;;;;10.76;40.01;98613.97;5133835;28;20195;-92
2024/01/14 11:09:59;;;;;;;25.93;11.63;;;;;;;10.88;40.22;98607.94;5135537;27;20175;-92
2024/01/14 11:12:44;;;;;;;27.03;11.70;;;;;;;11.00;40.24;98605.44;5120115;27;20179;-91
2024/01/14 11:15:16;;;;;;;25.50;11.03;;;;;;;10.92;40.16;98615.53;5118904;27;20186;-90
2024/01/14 11:17:52;;;;;;;24.70;11.07;;;;;;;10.94;39.48;98618.06;5107098;27;20183;-91
2024/01/14 11:20:21;;;;;;;28.47;12.00;;;;;;;11.29;39.90;98608.81;5138280;27;20167;-91
2024/01/14 11:22:49;;;;;;;24.00;11.47;;;;;;;11.45;39.44;98609.50;5138012;27;20237;-92